sensor_id;sensor_type;location;lat;lon;timestamp;pressure;altitude;pressure_sealevel;temperature;humidity
68226;BME280;55045;49.410;11.030;2023-01-31T00:01:45;98673.88;;;1.60;100.00
68226;BME280;55045;49.410;11.030;2023-01-31T00:04:49;98682.41;;;1.61;100.00
68226;BME280;55045;49.410;11.030;2023-01-31T00:07:54;98679.03;;;1.51;100.00
68226;BME280;55045;49.410;11.030;2023-01-31T00:10:58;98683.25;;;1.60;100.00
68226;BME280;55045;49.410;11.030;2023-01-31T00:14:03;98695.19;;;1.59;100.00
68226;BME280;55045;49.410;11.030;2023-01-31T00:17:07;98659.50;;;1.36;100.00
68226;BME280;55045;49.410;11.030;2023-01-31T00:20:11;98658.69;;;1.16;100.00
68226;BME280;55045;49.410;11.030;2023-01-31T00:23:16;98672.31;;;1.17;100.00
68226;BME280;55045;49.410;11.030;2023-01-31T00:26:21;98699.50;;;1.42;100.00
68226;BME280;55045;49.410;11.030;2023-01-31T00:29:25;98700.41;;;1.21;100.00
68226;BME280;55045;49.410;11.030;2023-01-31T00:32:29;98680.84;;;1.12;100.00
68226;BME280;55045;49.410;11.030;2023-01-31T00:35:32;98604.28;;;0.65;100.00
68226;BME280;55045;49.410;11.030;2023-01-31T00:38:38;98690.22;;;1.06;100.00
68226;BME280;55045;49.410;11.030;2023-01-31T00:41:43;98643.41;;;0.69;100.00
68226;BME280;55045;49.410;11.030;2023-01-31T00:44:46;98713.19;;;1.26;100.00
68226;BME280;55045;49.410;11.030;2023-01-31T00:47:51;98715.72;;;1.33;100.00
68226;BME280;55045;49.410;11.030;2023-01-31T00:50:55;98714.88;;;1.30;100.00
68226;BME280;55045;49.410;11.030;2023-01-31T00:54:00;98708.91;;;1.20;100.00
68226;BME280;55045;49.410;11.030;2023-01-31T00:57:04;98723.38;;;1.32;100.00
68226;BME280;55045;49.410;11.030;2023-01-31T01:00:09;98713.19;;;1.26;100.00
68226;BME280;55045;49.410;11.030;2023-01-31T01:03:13;98725.94;;;1.30;100.00
68226;BME280;55045;49.410;11.030;2023-01-31T01:06:37;98719.13;;;1.32;100.00
68226;BME280;55045;49.410;11.030;2023-01-31T01:09:44;98711.47;;;1.25;100.00
68226;BME280;55045;49.410;11.030;2023-01-31T01:12:49;98629.81;;;0.82;100.00
68226;BME280;55045;49.410;11.030;2023-01-31T01:15:52;98707.19;;;1.22;100.00
68226;BME280;55045;49.410;11.030;2023-01-31T01:18:57;98717.41;;;1.31;100.00
68226;BME280;55045;49.410;11.030;2023-01-31T01:22:00;98684.25;;;1.13;100.00
68226;BME280;55045;49.410;11.030;2023-01-31T01:25:08;98685.06;;;1.12;100.00
68226;BME280;55045;49.410;11.030;2023-01-31T01:28:12;98718.28;;;1.35;100.00
68226;BME280;55045;49.410;11.030;2023-01-31T01:31:17;98727.63;;;1.31;100.00
68226;BME280;55045;49.410;11.030;2023-01-31T01:34:21;98697.00;;;1.01;100.00
68226;BME280;55045;49.410;11.030;2023-01-31T01:37:25;98724.22;;;1.38;100.00
68226;BME280;55045;49.410;11.030;2023-01-31T01:40:35;98718.25;;;1.32;100.00
68226;BME280;55045;49.410;11.030;2023-01-31T01:43:41;98731.88;;;1.38;100.00
68226;BME280;55045;49.410;11.030;2023-01-31T01:46:45;98727.66;;;1.28;100.00
68226;BME280;55045;49.410;11.030;2023-01-31T01:49:52;98731.91;;;1.29;100.00
68226;BME280;55045;49.410;11.030;2023-01-31T01:52:59;98697.88;;;1.07;100.00
68226;BME280;55045;49.410;11.030;2023-01-31T01:56:08;98718.28;;;1.26;100.00
68226;BME280;55045;49.410;11.030;2023-01-31T01:59:15;98686.81;;;0.93;100.00
68226;BME280;55045;49.410;11.030;2023-01-31T02:02:27;98705.53;;;1.09;100.00
68226;BME280;55045;49.410;11.030;2023-01-31T02:05:33;98691.91;;;0.92;100.00
68226;BME280;55045;49.410;11.030;2023-01-31T02:08:41;98724.25;;;1.09;100.00
68226;BME280;55045;49.410;11.030;2023-01-31T02:11:47;98690.22;;;0.78;100.00
68226;BME280;55045;49.410;11.030;2023-01-31T02:14:55;98698.75;;;0.83;100.00
68226;BME280;55045;49.410;11.030;2023-01-31T02:17:59;98691.94;;;0.76;100.00
68226;BME280;55045;49.410;11.030;2023-01-31T02:25:07;98641.72;;;0.48;100.00
68226;BME280;55045;49.410;11.030;2023-01-31T02:32:34;98704.69;;;1.01;100.00
68226;BME280;55045;49.410;11.030;2023-01-31T02:35:57;98716.59;;;0.99;100.00
68226;BME280;55045;49.410;11.030;2023-01-31T02:39:12;98742.13;;;1.26;100.00
68226;BME280;55045;49.410;11.030;2023-01-31T02:42:27;98713.19;;;1.10;100.00
68226;BME280;55045;49.410;11.030;2023-01-31T02:45:40;98743.00;;;1.25;100.00
68226;BME280;55045;49.410;11.030;2023-01-31T02:48:52;98753.22;;;1.10;100.00
68226;BME280;55045;49.410;11.030;2023-01-31T02:51:59;98741.31;;;1.03;100.00
68226;BME280;55045;49.410;11.030;2023-01-31T02:55:22;98742.97;;;0.92;100.00
68226;BME280;55045;49.410;11.030;2023-01-31T02:58:53;98765.13;;;1.02;100.00
68226;BME280;55045;49.410;11.030;2023-01-31T03:02:01;98765.13;;;1.11;100.00
68226;BME280;55045;49.410;11.030;2023-01-31T03:05:07;98610.25;;;0.12;100.00
68226;BME280;55045;49.410;11.030;2023-01-31T03:08:11;98706.38;;;0.67;100.00
68226;BME280;55045;49.410;11.030;2023-01-31T03:11:24;98770.25;;;0.99;100.00
68226;BME280;55045;49.410;11.030;2023-01-31T03:14:33;98762.59;;;0.97;100.00
68226;BME280;55045;49.410;11.030;2023-01-31T03:17:50;98762.56;;;1.00;100.00
68226;BME280;55045;49.410;11.030;2023-01-31T03:20:59;98766.84;;;1.03;100.00
68226;BME280;55045;49.410;11.030;2023-01-31T03:24:07;98768.53;;;1.07;100.00
68226;BME280;55045;49.410;11.030;2023-01-31T03:27:10;98767.69;;;0.94;100.00
68226;BME280;55045;49.410;11.030;2023-01-31T03:30:18;98760.84;;;0.81;100.00
68226;BME280;55045;49.410;11.030;2023-01-31T03:33:26;98776.19;;;0.81;100.00
68226;BME280;55045;49.410;11.030;2023-01-31T03:36:38;98797.47;;;0.88;100.00
68226;BME280;55045;49.410;11.030;2023-01-31T03:40:03;98811.09;;;1.11;100.00
68226;BME280;55045;49.410;11.030;2023-01-31T03:43:13;98800.88;;;0.90;100.00
68226;BME280;55045;49.410;11.030;2023-01-31T03:46:24;98823.03;;;1.06;100.00
68226;BME280;55045;49.410;11.030;2023-01-31T03:49:30;98777.88;;;0.77;100.00
68226;BME280;55045;49.410;11.030;2023-01-31T03:52:42;98807.72;;;1.10;100.00
68226;BME280;55045;49.410;11.030;2023-01-31T03:55:51;98824.75;;;1.05;100.00
68226;BME280;55045;49.410;11.030;2023-01-31T03:58:59;98789.81;;;0.75;100.00
68226;BME280;55045;49.410;11.030;2023-01-31T04:02:11;98829.84;;;1.08;100.00
68226;BME280;55045;49.410;11.030;2023-01-31T04:05:18;98799.19;;;0.95;100.00
68226;BME280;55045;49.410;11.030;2023-01-31T04:08:30;98806.84;;;0.95;100.00
68226;BME280;55045;49.410;11.030;2023-01-31T04:11:39;98836.69;;;1.14;100.00
68226;BME280;55045;49.410;11.030;2023-01-31T04:14:43;98830.69;;;1.01;100.00
68226;BME280;55045;49.410;11.030;2023-01-31T04:17:47;98833.25;;;1.06;100.00
68226;BME280;55045;49.410;11.030;2023-01-31T04:20:51;98863.94;;;1.15;100.00
68226;BME280;55045;49.410;11.030;2023-01-31T04:23:56;98844.34;;;1.12;100.00
68226;BME280;55045;49.410;11.030;2023-01-31T04:26:59;98857.13;;;1.25;100.00
68226;BME280;55045;49.410;11.030;2023-01-31T04:30:04;98850.31;;;1.16;100.00
68226;BME280;55045;49.410;11.030;2023-01-31T04:34:30;98852.03;;;1.26;100.00
68226;BME280;55045;49.410;11.030;2023-01-31T04:37:35;98834.09;;;1.09;100.00
68226;BME280;55045;49.410;11.030;2023-01-31T04:40:39;98794.91;;;0.88;100.00
68226;BME280;55045;49.410;11.030;2023-01-31T04:43:45;98844.31;;;1.11;100.00
68226;BME280;55045;49.410;11.030;2023-01-31T04:46:48;98850.31;;;1.24;100.00
68226;BME280;55045;49.410;11.030;2023-01-31T04:49:53;98840.91;;;1.07;100.00
68226;BME280;55045;49.410;11.030;2023-01-31T04:52:57;98842.63;;;1.04;100.00
68226;BME280;55045;49.410;11.030;2023-01-31T04:56:00;98846.03;;;1.04;100.00
68226;BME280;55045;49.410;11.030;2023-01-31T04:59:05;98847.72;;;1.08;100.00
68226;BME280;55045;49.410;11.030;2023-01-31T05:02:09;98810.19;;;0.69;100.00
68226;BME280;55045;49.410;11.030;2023-01-31T05:05:21;98835.78;;;0.83;100.00
68226;BME280;55045;49.410;11.030;2023-01-31T05:08:24;98846.84;;;0.83;100.00
68226;BME280;55045;49.410;11.030;2023-01-31T05:11:28;98806.78;;;0.61;100.00
68226;BME280;55045;49.410;11.030;2023-01-31T05:14:31;98834.88;;;0.70;100.00
68226;BME280;55045;49.410;11.030;2023-01-31T05:17:35;98823.78;;;0.56;100.00
68226;BME280;55045;49.410;11.030;2023-01-31T05:20:40;98840.03;;;0.73;100.00
68226;BME280;55045;49.410;11.030;2023-01-31T05:23:46;98848.50;;;0.71;100.00
68226;BME280;55045;49.410;11.030;2023-01-31T05:26:50;98838.28;;;0.69;100.00
68226;BME280;55045;49.410;11.030;2023-01-31T05:29:57;98837.47;;;0.72;100.00
68226;BME280;55045;49.410;11.030;2023-01-31T05:33:20;98837.47;;;0.79;100.00
68226;BME280;55045;49.410;11.030;2023-01-31T05:36:25;98830.63;;;0.65;100.00
68226;BME280;55045;49.410;11.030;2023-01-31T05:39:29;98840.00;;;0.79;100.00
68226;BME280;55045;49.410;11.030;2023-01-31T05:42:33;98843.41;;;0.78;100.00
68226;BME280;55045;49.410;11.030;2023-01-31T05:45:36;98838.34;;;0.91;100.00
68226;BME280;55045;49.410;11.030;2023-01-31T05:48:40;98730.16;;;0.26;100.00
68226;BME280;55045;49.410;11.030;2023-01-31T05:51:45;98820.47;;;0.83;100.00
68226;BME280;55045;49.410;11.030;2023-01-31T05:54:49;98844.31;;;0.96;100.00
68226;BME280;55045;49.410;11.030;2023-01-31T05:57:53;98831.56;;;0.94;100.00
68226;BME280;55045;49.410;11.030;2023-01-31T06:00:57;98857.97;;;1.02;100.00
68226;BME280;55045;49.410;11.030;2023-01-31T06:04:01;98847.72;;;0.98;100.00
68226;BME280;55045;49.410;11.030;2023-01-31T06:07:08;98872.41;;;0.99;100.00
68226;BME280;55045;49.410;11.030;2023-01-31T06:10:13;98865.63;;;1.08;100.00
68226;BME280;55045;49.410;11.030;2023-01-31T06:13:16;98817.03;;;0.72;100.00
68226;BME280;55045;49.410;11.030;2023-01-31T06:16:20;98822.16;;;0.85;100.00
68226;BME280;55045;49.410;11.030;2023-01-31T06:19:24;98858.78;;;1.00;100.00
68226;BME280;55045;49.410;11.030;2023-01-31T06:22:49;98869.88;;;1.08;100.00
68226;BME280;55045;49.410;11.030;2023-01-31T06:26:12;98869.03;;;1.03;100.00
68226;BME280;55045;49.410;11.030;2023-01-31T06:29:15;98876.69;;;1.03;100.00
68226;BME280;55045;49.410;11.030;2023-01-31T06:32:37;98882.63;;;1.02;100.00
68226;BME280;55045;49.410;11.030;2023-01-31T06:35:41;98861.34;;;0.94;100.00
68226;BME280;55045;49.410;11.030;2023-01-31T06:38:48;98884.34;;;1.04;100.00
68226;BME280;55045;49.410;11.030;2023-01-31T06:41:52;98884.34;;;1.04;100.00
68226;BME280;55045;49.410;11.030;2023-01-31T06:44:56;98851.09;;;0.91;100.00
68226;BME280;55045;49.410;11.030;2023-01-31T06:48:00;98869.84;;;0.97;100.00
68226;BME280;55045;49.410;11.030;2023-01-31T06:51:22;98848.53;;;0.78;100.00
68226;BME280;55045;49.410;11.030;2023-01-31T06:54:27;98885.19;;;0.93;100.00
68226;BME280;55045;49.410;11.030;2023-01-31T06:57:30;98851.94;;;0.77;100.00
68226;BME280;55045;49.410;11.030;2023-01-31T07:00:34;98841.72;;;0.74;100.00
68226;BME280;55045;49.410;11.030;2023-01-31T07:03:37;98803.38;;;0.56;100.00
68226;BME280;55045;49.410;11.030;2023-01-31T07:06:41;98856.22;;;0.97;100.00
68226;BME280;55045;49.410;11.030;2023-01-31T07:09:46;98878.41;;;1.02;100.00
68226;BME280;55045;49.410;11.030;2023-01-31T07:13:07;98883.50;;;1.04;100.00
68226;BME280;55045;49.410;11.030;2023-01-31T07:16:11;98889.38;;;0.78;100.00
68226;BME280;55045;49.410;11.030;2023-01-31T07:19:14;98892.84;;;0.93;100.00
68226;BME280;55045;49.410;11.030;2023-01-31T07:22:18;98881.69;;;0.71;100.00
68226;BME280;55045;49.410;11.030;2023-01-31T07:25:23;98880.81;;;0.58;100.00
68226;BME280;55045;49.410;11.030;2023-01-31T07:28:26;98892.72;;;0.59;100.00
68226;BME280;55045;49.410;11.030;2023-01-31T07:31:30;98879.94;;;0.51;100.00
68226;BME280;55045;49.410;11.030;2023-01-31T07:34:35;98880.75;;;0.44;100.00
68226;BME280;55045;49.410;11.030;2023-01-31T07:37:39;98896.06;;;0.44;100.00
68226;BME280;55045;49.410;11.030;2023-01-31T07:40:46;98894.38;;;0.45;100.00
68226;BME280;55045;49.410;11.030;2023-01-31T07:43:50;98882.41;;;0.35;100.00
68226;BME280;55045;49.410;11.030;2023-01-31T07:46:54;98897.72;;;0.38;100.00
68226;BME280;55045;49.410;11.030;2023-01-31T07:50:18;98844.00;;;0.10;100.00
68226;BME280;55045;49.410;11.030;2023-01-31T07:53:26;98886.75;;;0.52;100.00
68226;BME280;55045;49.410;11.030;2023-01-31T07:56:33;98885.88;;;0.49;100.00
68226;BME280;55045;49.410;11.030;2023-01-31T07:59:37;98878.25;;;0.53;100.00
68226;BME280;55045;49.410;11.030;2023-01-31T08:02:40;98907.25;;;0.77;100.00
68226;BME280;55045;49.410;11.030;2023-01-31T08:06:03;98928.59;;;0.99;100.00
68226;BME280;55045;49.410;11.030;2023-01-31T08:09:09;98897.91;;;0.90;100.00
68226;BME280;55045;49.410;11.030;2023-01-31T08:12:14;98922.66;;;0.98;100.00
68226;BME280;55045;49.410;11.030;2023-01-31T08:15:18;98885.13;;;0.73;100.00
68226;BME280;55045;49.410;11.030;2023-01-31T08:18:23;98905.59;;;0.82;100.00
68226;BME280;55045;49.410;11.030;2023-01-31T08:21:26;98865.47;;;0.53;100.00
68226;BME280;55045;49.410;11.030;2023-01-31T08:24:30;98918.31;;;0.80;100.00
68226;BME280;55045;49.410;11.030;2023-01-31T08:27:36;98919.16;;;0.81;100.00
68226;BME280;55045;49.410;11.030;2023-01-31T08:30:40;98907.22;;;0.71;100.00
68226;BME280;55045;49.410;11.030;2023-01-31T08:33:44;98908.03;;;0.54;100.00
68226;BME280;55045;49.410;11.030;2023-01-31T08:36:49;98921.66;;;0.58;100.00
68226;BME280;55045;49.410;11.030;2023-01-31T08:39:56;98838.13;;;0.25;100.00
68226;BME280;55045;49.410;11.030;2023-01-31T08:43:02;98949.06;;;1.11;100.00
68226;BME280;55045;49.410;11.030;2023-01-31T08:46:05;98928.66;;;1.12;100.00
68226;BME280;55045;49.410;11.030;2023-01-31T08:49:10;98899.69;;;1.15;100.00
68226;BME280;55045;49.410;11.030;2023-01-31T08:52:14;98854.47;;;0.80;100.00
68226;BME280;55045;49.410;11.030;2023-01-31T08:55:17;98900.53;;;1.09;100.00
68226;BME280;55045;49.410;11.030;2023-01-31T08:58:23;98845.09;;;0.70;100.00
68226;BME280;55045;49.410;11.030;2023-01-31T09:01:27;98924.41;;;1.14;100.00
68226;BME280;55045;49.410;11.030;2023-01-31T09:04:31;98911.63;;;1.13;100.00
68226;BME280;55045;49.410;11.030;2023-01-31T09:07:34;98914.19;;;1.19;100.00
68226;BME280;55045;49.410;11.030;2023-01-31T09:10:38;98920.97;;;1.22;100.00
68226;BME280;55045;49.410;11.030;2023-01-31T09:13:43;98921.84;;;1.22;100.00
68226;BME280;55045;49.410;11.030;2023-01-31T09:16:48;98856.25;;;0.92;100.00
68226;BME280;55045;49.410;11.030;2023-01-31T09:19:51;98921.91;;;1.43;100.00
68226;BME280;55045;49.410;11.030;2023-01-31T09:22:55;98915.91;;;1.49;100.00
68226;BME280;55045;49.410;11.030;2023-01-31T09:25:59;98921.88;;;1.42;100.00
68226;BME280;55045;49.410;11.030;2023-01-31T09:29:03;98915.06;;;1.46;100.00
68226;BME280;55045;49.410;11.030;2023-01-31T09:32:11;98911.66;;;1.45;100.00
68226;BME280;55045;49.410;11.030;2023-01-31T09:35:22;98765.94;;;0.69;100.00
68226;BME280;55045;49.410;11.030;2023-01-31T09:38:25;98915.94;;;1.48;100.00
68226;BME280;55045;49.410;11.030;2023-01-31T09:41:32;98901.44;;;1.47;100.00
68226;BME280;55045;49.410;11.030;2023-01-31T09:44:56;98901.44;;;1.51;100.00
68226;BME280;55045;49.410;11.030;2023-01-31T09:48:11;98875.00;;;1.43;100.00
68226;BME280;55045;49.410;11.030;2023-01-31T09:51:24;98909.09;;;1.63;100.00
68226;BME280;55045;49.410;11.030;2023-01-31T09:54:38;98909.09;;;1.80;100.00
68226;BME280;55045;49.410;11.030;2023-01-31T09:57:52;98905.69;;;1.80;100.00
68226;BME280;55045;49.410;11.030;2023-01-31T10:01:15;98901.44;;;1.86;100.00
68226;BME280;55045;49.410;11.030;2023-01-31T10:04:56;98904.84;;;1.94;100.00
68226;BME280;55045;49.410;11.030;2023-01-31T10:08:20;98860.50;;;1.86;100.00
68226;BME280;55045;49.410;11.030;2023-01-31T10:11:33;98886.06;;;2.08;100.00
68226;BME280;55045;49.410;11.030;2023-01-31T10:14:41;98879.19;;;2.13;100.00
68226;BME280;55045;49.410;11.030;2023-01-31T10:17:51;98880.88;;;2.29;100.00
68226;BME280;55045;49.410;11.030;2023-01-31T10:20:59;98868.97;;;2.25;100.00
68226;BME280;55045;49.410;11.030;2023-01-31T10:24:11;98857.84;;;2.27;100.00
68226;BME280;55045;49.410;11.030;2023-01-31T10:27:24;98813.59;;;1.89;100.00
68226;BME280;55045;49.410;11.030;2023-01-31T10:34:32;98843.16;;;2.65;100.00
68226;BME280;55045;49.410;11.030;2023-01-31T10:37:42;98841.44;;;2.73;100.00
68226;BME280;55045;49.410;11.030;2023-01-31T10:40:55;98809.13;;;2.49;100.00
68226;BME280;55045;49.410;11.030;2023-01-31T10:44:05;98835.47;;;2.72;100.00
68226;BME280;55045;49.410;11.030;2023-01-31T10:47:12;98806.56;;;2.50;100.00
68226;BME280;55045;49.410;11.030;2023-01-31T10:50:29;98834.63;;;2.66;100.00
68226;BME280;55045;49.410;11.030;2023-01-31T10:53:54;98830.44;;;2.55;100.00
68226;BME280;55045;49.410;11.030;2023-01-31T10:57:01;98810.84;;;2.48;100.00
68226;BME280;55045;49.410;11.030;2023-01-31T11:00:10;98821.03;;;2.54;100.00
68226;BME280;55045;49.410;11.030;2023-01-31T11:03:21;98734.28;;;1.96;100.00
68226;BME280;55045;49.410;11.030;2023-01-31T11:06:33;98821.13;;;2.39;100.00
68226;BME280;55045;49.410;11.030;2023-01-31T11:09:39;98827.94;;;2.34;100.00
68226;BME280;55045;49.410;11.030;2023-01-31T11:12:52;98824.59;;;2.26;100.00
68226;BME280;55045;49.410;11.030;2023-01-31T11:15:56;98795.59;;;2.25;100.00
68226;BME280;55045;49.410;11.030;2023-01-31T11:19:02;98821.09;;;2.45;100.00
68226;BME280;55045;49.410;11.030;2023-01-31T11:22:19;98805.72;;;2.48;100.00
68226;BME280;55045;49.410;11.030;2023-01-31T11:25:25;98808.22;;;2.57;100.00
68226;BME280;55045;49.410;11.030;2023-01-31T11:28:33;98814.13;;;2.72;100.00
68226;BME280;55045;49.410;11.030;2023-01-31T11:31:40;98794.56;;;2.60;100.00
68226;BME280;55045;49.410;11.030;2023-01-31T11:34:58;98774.72;;;2.91;100.00
68226;BME280;55045;49.410;11.030;2023-01-31T11:38:18;98776.22;;;3.20;100.00
68226;BME280;55045;49.410;11.030;2023-01-31T11:41:28;98754.28;;;2.82;100.00
68226;BME280;55045;49.410;11.030;2023-01-31T11:44:32;98759.97;;;3.19;100.00
68226;BME280;55045;49.410;11.030;2023-01-31T11:47:39;98760.28;;;2.81;100.00
68226;BME280;55045;49.410;11.030;2023-01-31T11:50:50;98746.69;;;2.68;100.00
68226;BME280;55045;49.410;11.030;2023-01-31T11:53:56;98736.53;;;2.56;100.00
68226;BME280;55045;49.410;11.030;2023-01-31T11:57:00;98715.19;;;2.57;100.00
68226;BME280;55045;49.410;11.030;2023-01-31T12:00:07;98716.06;;;2.53;100.00
68226;BME280;55045;49.410;11.030;2023-01-31T12:03:21;98718.44;;;2.79;100.00
68226;BME280;55045;49.410;11.030;2023-01-31T12:06:26;98693.09;;;2.42;100.00
68226;BME280;55045;49.410;11.030;2023-01-31T12:09:40;98699.06;;;2.41;100.00
68226;BME280;55045;49.410;11.030;2023-01-31T12:12:44;98722.03;;;2.56;100.00
68226;BME280;55045;49.410;11.030;2023-01-31T12:15:51;98718.53;;;2.64;100.00
68226;BME280;55045;49.410;11.030;2023-01-31T12:19:06;98720.28;;;2.62;100.00
68226;BME280;55045;49.410;11.030;2023-01-31T12:22:15;98716.94;;;2.50;100.00
68226;BME280;55045;49.410;11.030;2023-01-31T12:25:27;98696.47;;;2.44;100.00
68226;BME280;55045;49.410;11.030;2023-01-31T12:28:45;98696.50;;;2.41;100.00
68226;BME280;55045;49.410;11.030;2023-01-31T12:32:05;98696.47;;;2.49;100.00
68226;BME280;55045;49.410;11.030;2023-01-31T12:35:26;98707.59;;;2.43;100.00
68226;BME280;55045;49.410;11.030;2023-01-31T12:38:45;98705.03;;;2.42;100.00
68226;BME280;55045;49.410;11.030;2023-01-31T12:42:07;98701.66;;;2.40;100.00
68226;BME280;55045;49.410;11.030;2023-01-31T12:45:32;98705.06;;;2.34;100.00
68226;BME280;55045;49.410;11.030;2023-01-31T12:48:50;98604.81;;;1.74;100.00
68226;BME280;55045;49.410;11.030;2023-01-31T12:52:03;98588.72;;;1.55;100.00
68226;BME280;55045;49.410;11.030;2023-01-31T12:55:17;98715.34;;;2.29;100.00
68226;BME280;55045;49.410;11.030;2023-01-31T12:58:41;98729.88;;;2.27;100.00
68226;BME280;55045;49.410;11.030;2023-01-31T13:01:48;98715.38;;;2.23;100.00
68226;BME280;55045;49.410;11.030;2023-01-31T13:04:57;98731.59;;;2.27;100.00
68226;BME280;55045;49.410;11.030;2023-01-31T13:08:08;98735.75;;;2.43;100.00
68226;BME280;55045;49.410;11.030;2023-01-31T13:11:20;98717.09;;;2.21;100.00
68226;BME280;55045;49.410;11.030;2023-01-31T13:14:30;98734.97;;;2.29;100.00
68226;BME280;55045;49.410;11.030;2023-01-31T13:17:38;98724.72;;;2.34;100.00
68226;BME280;55045;49.410;11.030;2023-01-31T13:20:47;98714.53;;;2.23;100.00
68226;BME280;55045;49.410;11.030;2023-01-31T13:23:55;98728.19;;;2.25;100.00
68226;BME280;55045;49.410;11.030;2023-01-31T13:27:05;98723.97;;;2.15;100.00
68226;BME280;55045;49.410;11.030;2023-01-31T13:30:17;98689.94;;;1.97;100.00
68226;BME280;55045;49.410;11.030;2023-01-31T13:33:29;98718.84;;;2.12;100.00
68226;BME280;55045;49.410;11.030;2023-01-31T13:36:38;98684.78;;;2.03;100.00
68226;BME280;55045;49.410;11.030;2023-01-31T13:39:46;98696.75;;;2.05;100.00
68226;BME280;55045;49.410;11.030;2023-01-31T13:42:51;98680.53;;;2.02;100.00
68226;BME280;55045;49.410;11.030;2023-01-31T13:46:00;98660.13;;;1.90;100.00
68226;BME280;55045;49.410;11.030;2023-01-31T13:49:07;98634.63;;;1.75;100.00
68226;BME280;55045;49.410;11.030;2023-01-31T13:52:17;98630.28;;;1.89;100.00
68226;BME280;55045;49.410;11.030;2023-01-31T13:55:29;98660.06;;;2.02;100.00
68226;BME280;55045;49.410;11.030;2023-01-31T13:58:34;98642.13;;;2.02;100.00
68226;BME280;55045;49.410;11.030;2023-01-31T14:01:45;98633.59;;;2.03;100.00
68226;BME280;55045;49.410;11.030;2023-01-31T14:04:51;98633.53;;;2.14;100.00
68226;BME280;55045;49.410;11.030;2023-01-31T14:08:29;98632.66;;;2.20;100.00
68226;BME280;55045;49.410;11.030;2023-01-31T14:11:34;98612.22;;;2.14;100.00
68226;BME280;55045;49.410;11.030;2023-01-31T14:14:47;98604.53;;;2.18;100.00
68226;BME280;55045;49.410;11.030;2023-01-31T14:17:59;98545.91;;;1.86;100.00
68226;BME280;55045;49.410;11.030;2023-01-31T14:24:56;98453.44;;;1.23;100.00
68226;BME280;55045;49.410;11.030;2023-01-31T14:28:02;98593.50;;;2.10;100.00
68226;BME280;55045;49.410;11.030;2023-01-31T14:31:11;98602.81;;;2.20;100.00
68226;BME280;55045;49.410;11.030;2023-01-31T14:34:19;98606.19;;;2.25;100.00
68226;BME280;55045;49.410;11.030;2023-01-31T14:37:33;98475.34;;;1.59;100.00
68226;BME280;55045;49.410;11.030;2023-01-31T14:40:46;98555.94;;;2.17;100.00
68226;BME280;55045;49.410;11.030;2023-01-31T14:44:06;98594.16;;;2.38;100.00
68226;BME280;55045;49.410;11.030;2023-01-31T14:47:23;98597.59;;;2.36;100.00
68226;BME280;55045;49.410;11.030;2023-01-31T14:50:45;98603.47;;;2.42;100.00
68226;BME280;55045;49.410;11.030;2023-01-31T14:54:19;98609.44;;;2.44;100.00
68226;BME280;55045;49.410;11.030;2023-01-31T14:57:30;98597.50;;;2.43;100.00
68226;BME280;55045;49.410;11.030;2023-01-31T15:00:36;98592.38;;;2.45;100.00
68226;BME280;55045;49.410;11.030;2023-01-31T15:03:48;98582.97;;;2.47;100.00
68226;BME280;55045;49.410;11.030;2023-01-31T15:06:55;98579.56;;;2.46;100.00
68226;BME280;55045;49.410;11.030;2023-01-31T15:09:59;98574.41;;;2.51;100.00
68226;BME280;55045;49.410;11.030;2023-01-31T15:13:02;98536.97;;;2.38;100.00
68226;BME280;55045;49.410;11.030;2023-01-31T15:16:09;98539.50;;;2.41;100.00
68226;BME280;55045;49.410;11.030;2023-01-31T15:19:19;98552.22;;;2.51;100.00
68226;BME280;55045;49.410;11.030;2023-01-31T15:22:29;98550.50;;;2.52;100.00
68226;BME280;55045;49.410;11.030;2023-01-31T15:25:35;98527.56;;;2.41;100.00
68226;BME280;55045;49.410;11.030;2023-01-31T15:28:42;98517.34;;;2.38;100.00
68226;BME280;55045;49.410;11.030;2023-01-31T15:31:49;98553.03;;;2.53;100.00
68226;BME280;55045;49.410;11.030;2023-01-31T15:34:55;98557.31;;;2.51;100.00
68226;BME280;55045;49.410;11.030;2023-01-31T15:38:04;98559.84;;;2.54;100.00
68226;BME280;55045;49.410;11.030;2023-01-31T15:41:19;98570.00;;;2.64;100.00
68226;BME280;55045;49.410;11.030;2023-01-31T15:44:25;98566.72;;;2.52;100.00
68226;BME280;55045;49.410;11.030;2023-01-31T15:47:30;98576.88;;;2.62;100.00
68226;BME280;55045;49.410;11.030;2023-01-31T15:50:35;98578.56;;;2.63;100.00
68226;BME280;55045;49.410;11.030;2023-01-31T15:53:40;98566.75;;;2.49;100.00
68226;BME280;55045;49.410;11.030;2023-01-31T15:56:44;98587.06;;;2.68;100.00
68226;BME280;55045;49.410;11.030;2023-01-31T15:59:48;98579.38;;;2.68;100.00
68226;BME280;55045;49.410;11.030;2023-01-31T16:02:52;98582.81;;;2.67;100.00
68226;BME280;55045;49.410;11.030;2023-01-31T16:06:02;98567.47;;;2.62;100.00
68226;BME280;55045;49.410;11.030;2023-01-31T16:09:22;98559.03;;;2.51;100.00
68226;BME280;55045;49.410;11.030;2023-01-31T16:12:27;98562.38;;;2.59;100.00
68226;BME280;55045;49.410;11.030;2023-01-31T16:15:32;98571.63;;;2.74;100.00
68226;BME280;55045;49.410;11.030;2023-01-31T16:18:36;98552.22;;;2.50;100.00
68226;BME280;55045;49.410;11.030;2023-01-31T16:21:42;98585.34;;;2.70;100.00
68226;BME280;55045;49.410;11.030;2023-01-31T16:24:53;98581.06;;;2.70;100.00
68226;BME280;55045;49.410;11.030;2023-01-31T16:27:57;98440.22;;;1.83;100.00
68226;BME280;55045;49.410;11.030;2023-01-31T16:34:30;98530.06;;;2.47;100.00
68226;BME280;55045;49.410;11.030;2023-01-31T16:37:35;98513.03;;;2.43;100.00
68226;BME280;55045;49.410;11.030;2023-01-31T16:40:45;98570.00;;;2.67;100.00
68226;BME280;55045;49.410;11.030;2023-01-31T16:43:49;98575.13;;;2.65;100.00
68226;BME280;55045;49.410;11.030;2023-01-31T16:46:53;98561.56;;;2.55;100.00